sensor_id;sensor_type;location;lat;lon;timestamp;pressure;altitude;pressure_sealevel;temperature;humidity
14882;BME280;7533;51.278;12.588;2023-02-13T00:00:06;102306.19;;;22.38;59.85
14882;BME280;7533;51.278;12.588;2023-02-13T00:05:10;102299.91;;;22.38;60.06
14882;BME280;7533;51.278;12.588;2023-02-13T00:10:14;102295.91;;;22.26;60.22
14882;BME280;7533;51.278;12.588;2023-02-13T00:15:17;102291.88;;;22.36;59.99
14882;BME280;7533;51.278;12.588;2023-02-13T00:20:20;102295.78;;;22.29;60.14
14882;BME280;7533;51.278;12.588;2023-02-13T00:25:24;102290.31;;;22.31;60.05
14882;BME280;7533;51.278;12.588;2023-02-13T00:30:27;102285.03;;;22.28;60.26
14882;BME280;7533;51.278;12.588;2023-02-13T00:35:30;102283.19;;;22.30;60.11
14882;BME280;7533;51.278;12.588;2023-02-13T00:40:34;102282.13;;;22.34;60.16
14882;BME280;7533;51.278;12.588;2023-02-13T00:45:37;102285.47;;;22.39;59.96
14882;BME280;7533;51.278;12.588;2023-02-13T00:50:40;102288.44;;;22.33;60.00
14882;BME280;7533;51.278;12.588;2023-02-13T00:55:45;102283.03;;;22.33;60.05
14882;BME280;7533;51.278;12.588;2023-02-13T01:00:47;102272.66;;;22.24;60.19
14882;BME280;7533;51.278;12.588;2023-02-13T01:05:52;102286.44;;;22.38;60.00
14882;BME280;7533;51.278;12.588;2023-02-13T01:10:56;102287.56;;;22.32;60.23
14882;BME280;7533;51.278;12.588;2023-02-13T01:16:00;102289.31;;;22.33;60.11
14882;BME280;7533;51.278;12.588;2023-02-13T01:21:05;102278.28;;;22.39;59.89
14882;BME280;7533;51.278;12.588;2023-02-13T01:26:15;102281.16;;;22.35;60.06
14882;BME280;7533;51.278;12.588;2023-02-13T01:31:19;102279.47;;;22.32;60.18
14882;BME280;7533;51.278;12.588;2023-02-13T01:36:24;102277.53;;;22.36;60.19
14882;BME280;7533;51.278;12.588;2023-02-13T01:41:30;102274.50;;;22.22;60.29
14882;BME280;7533;51.278;12.588;2023-02-13T01:46:36;102269.88;;;22.25;60.30
14882;BME280;7533;51.278;12.588;2023-02-13T01:51:40;102276.91;;;22.29;60.36
14882;BME280;7533;51.278;12.588;2023-02-13T01:56:48;102279.16;;;22.18;60.50
14882;BME280;7533;51.278;12.588;2023-02-13T02:01:52;102273.63;;;22.21;60.63
14882;BME280;7533;51.278;12.588;2023-02-13T02:07:02;102266.31;;;22.25;60.42
14882;BME280;7533;51.278;12.588;2023-02-13T02:12:13;102253.94;;;22.19;60.52
14882;BME280;7533;51.278;12.588;2023-02-13T02:17:21;102263.72;;;22.22;60.45
14882;BME280;7533;51.278;12.588;2023-02-13T02:28:52;102246.28;;;22.30;60.29
14882;BME280;7533;51.278;12.588;2023-02-13T02:34:16;102255.94;;;22.36;60.18
14882;BME280;7533;51.278;12.588;2023-02-13T02:39:29;102252.56;;;22.31;60.32
14882;BME280;7533;51.278;12.588;2023-02-13T02:44:41;102253.44;;;22.31;60.14
14882;BME280;7533;51.278;12.588;2023-02-13T02:49:56;102254.22;;;22.33;60.24
14882;BME280;7533;51.278;12.588;2023-02-13T02:55:08;102249.09;;;22.27;60.34
14882;BME280;7533;51.278;12.588;2023-02-13T03:00:25;102258.03;;;22.29;60.23
14882;BME280;7533;51.278;12.588;2023-02-13T03:05:51;102255.44;;;22.26;60.29
14882;BME280;7533;51.278;12.588;2023-02-13T03:11:14;102260.56;;;22.32;60.22
14882;BME280;7533;51.278;12.588;2023-02-13T03:16:35;102260.53;;;22.34;60.22
14882;BME280;7533;51.278;12.588;2023-02-13T03:21:58;102254.50;;;22.27;60.25
14882;BME280;7533;51.278;12.588;2023-02-13T03:27:31;102264.16;;;22.33;60.27
14882;BME280;7533;51.278;12.588;2023-02-13T03:33:03;102257.16;;;22.29;60.33
14882;BME280;7533;51.278;12.588;2023-02-13T03:38:15;102258.91;;;22.30;60.23
14882;BME280;7533;51.278;12.588;2023-02-13T03:43:20;102257.00;;;22.32;60.14
14882;BME280;7533;51.278;12.588;2023-02-13T03:48:26;102267.69;;;22.35;60.10
14882;BME280;7533;51.278;12.588;2023-02-13T03:53:53;102270.38;;;22.35;60.05
14882;BME280;7533;51.278;12.588;2023-02-13T03:58:57;102274.75;;;22.37;59.92
14882;BME280;7533;51.278;12.588;2023-02-13T04:04:23;102278.41;;;22.36;60.01
14882;BME280;7533;51.278;12.588;2023-02-13T04:09:30;102269.53;;;22.33;60.35
14882;BME280;7533;51.278;12.588;2023-02-13T04:14:37;102274.03;;;22.34;59.99
14882;BME280;7533;51.278;12.588;2023-02-13T04:19:41;102278.31;;;22.38;60.14
14882;BME280;7533;51.278;12.588;2023-02-13T04:24:46;102268.63;;;22.34;60.08
14882;BME280;7533;51.278;12.588;2023-02-13T04:29:49;102276.03;;;22.05;61.35
14882;BME280;7533;51.278;12.588;2023-02-13T04:34:51;102266.03;;;22.31;59.95
14882;BME280;7533;51.278;12.588;2023-02-13T04:39:56;102264.16;;;22.33;60.19
14882;BME280;7533;51.278;12.588;2023-02-13T04:44:59;102264.22;;;22.31;60.38
14882;BME280;7533;51.278;12.588;2023-02-13T04:50:02;102265.97;;;22.32;60.65
14882;BME280;7533;51.278;12.588;2023-02-13T04:55:06;102258.91;;;22.30;60.49
14882;BME280;7533;51.278;12.588;2023-02-13T05:00:10;102267.09;;;22.27;60.26
14882;BME280;7533;51.278;12.588;2023-02-13T05:05:13;102266.16;;;22.28;60.05
14882;BME280;7533;51.278;12.588;2023-02-13T05:10:17;102260.75;;;22.28;60.08
14882;BME280;7533;51.278;12.588;2023-02-13T05:15:20;102262.66;;;22.26;59.90
14882;BME280;7533;51.278;12.588;2023-02-13T05:20:24;102271.81;;;22.22;60.00
14882;BME280;7533;51.278;12.588;2023-02-13T05:25:28;102274.41;;;22.25;59.88
14882;BME280;7533;51.278;12.588;2023-02-13T05:30:31;102266.38;;;22.23;59.76
14882;BME280;7533;51.278;12.588;2023-02-13T05:35:34;102270.75;;;22.26;59.69
14882;BME280;7533;51.278;12.588;2023-02-13T05:40:38;102264.56;;;22.24;59.50
14882;BME280;7533;51.278;12.588;2023-02-13T05:45:41;102263.72;;;22.22;59.68
14882;BME280;7533;51.278;12.588;2023-02-13T05:50:45;102265.59;;;22.20;59.63
14882;BME280;7533;51.278;12.588;2023-02-13T05:55:49;102263.09;;;22.15;59.95
14882;BME280;7533;51.278;12.588;2023-02-13T06:00:54;102271.38;;;22.10;59.82
14882;BME280;7533;51.278;12.588;2023-02-13T06:05:58;102271.47;;;22.07;59.96
14882;BME280;7533;51.278;12.588;2023-02-13T06:11:03;102272.53;;;22.03;59.93
14882;BME280;7533;51.278;12.588;2023-02-13T06:16:06;102270.97;;;21.98;60.06
14882;BME280;7533;51.278;12.588;2023-02-13T06:21:09;102274.66;;;21.95;59.95
14882;BME280;7533;51.278;12.588;2023-02-13T06:26:14;102282.00;;;21.91;60.10
14882;BME280;7533;51.278;12.588;2023-02-13T06:31:16;102284.88;;;21.87;60.15
14882;BME280;7533;51.278;12.588;2023-02-13T06:36:19;102279.59;;;21.84;60.18
14882;BME280;7533;51.278;12.588;2023-02-13T06:41:24;102277.97;;;21.80;60.30
14882;BME280;7533;51.278;12.588;2023-02-13T06:46:26;102288.84;;;21.77;60.52
14882;BME280;7533;51.278;12.588;2023-02-13T06:51:29;102291.75;;;21.72;60.45
14882;BME280;7533;51.278;12.588;2023-02-13T06:56:33;102291.91;;;21.68;60.60
14882;BME280;7533;51.278;12.588;2023-02-13T07:01:36;102279.59;;;21.60;60.67
14882;BME280;7533;51.278;12.588;2023-02-13T07:06:39;102287.00;;;21.55;60.96
14882;BME280;7533;51.278;12.588;2023-02-13T07:11:43;102292.56;;;21.51;61.37
14882;BME280;7533;51.278;12.588;2023-02-13T07:16:46;102309.59;;;21.51;60.88
14882;BME280;7533;51.278;12.588;2023-02-13T07:21:49;102306.19;;;21.46;60.46
14882;BME280;7533;51.278;12.588;2023-02-13T07:26:53;102309.94;;;21.42;60.39
14882;BME280;7533;51.278;12.588;2023-02-13T07:31:56;102314.50;;;21.40;60.08
14882;BME280;7533;51.278;12.588;2023-02-13T07:36:59;102320.06;;;21.35;60.05
14882;BME280;7533;51.278;12.588;2023-02-13T07:42:03;102327.38;;;21.32;60.10
14882;BME280;7533;51.278;12.588;2023-02-13T07:47:06;102320.28;;;21.29;59.93
14882;BME280;7533;51.278;12.588;2023-02-13T07:52:09;102316.75;;;21.27;60.33
14882;BME280;7533;51.278;12.588;2023-02-13T07:57:13;102321.34;;;21.24;60.06
14882;BME280;7533;51.278;12.588;2023-02-13T08:02:16;102320.56;;;21.22;60.36
14882;BME280;7533;51.278;12.588;2023-02-13T08:07:19;102319.69;;;21.20;60.45
14882;BME280;7533;51.278;12.588;2023-02-13T08:12:23;102329.75;;;21.14;60.25
14882;BME280;7533;51.278;12.588;2023-02-13T08:17:26;102329.81;;;21.13;60.38
14882;BME280;7533;51.278;12.588;2023-02-13T08:22:29;102330.81;;;21.10;60.59
14882;BME280;7533;51.278;12.588;2023-02-13T08:27:33;102330.81;;;21.10;60.43
14882;BME280;7533;51.278;12.588;2023-02-13T08:32:36;102329.03;;;21.09;60.44
14882;BME280;7533;51.278;12.588;2023-02-13T08:37:54;102324.59;;;21.08;60.33
14882;BME280;7533;51.278;12.588;2023-02-13T08:43:03;102331.84;;;21.06;60.33
14882;BME280;7533;51.278;12.588;2023-02-13T08:48:07;102332.81;;;21.04;60.31
14882;BME280;7533;51.278;12.588;2023-02-13T08:53:09;102340.03;;;21.03;60.22
14882;BME280;7533;51.278;12.588;2023-02-13T08:58:14;102338.34;;;21.01;60.08
14882;BME280;7533;51.278;12.588;2023-02-13T09:03:16;102339.28;;;21.00;60.41
14882;BME280;7533;51.278;12.588;2023-02-13T09:08:19;102339.31;;;20.98;60.31
14882;BME280;7533;51.278;12.588;2023-02-13T09:13:23;102350.88;;;17.76;56.02
14882;BME280;7533;51.278;12.588;2023-02-13T09:18:27;102363.16;;;16.33;56.42
14882;BME280;7533;51.278;12.588;2023-02-13T09:23:30;102367.88;;;15.37;57.76
14882;BME280;7533;51.278;12.588;2023-02-13T09:28:35;102365.72;;;17.92;55.42
14882;BME280;7533;51.278;12.588;2023-02-13T09:33:38;102357.03;;;18.95;53.74
14882;BME280;7533;51.278;12.588;2023-02-13T09:38:41;102355.09;;;19.36;53.81
14882;BME280;7533;51.278;12.588;2023-02-13T09:43:49;102353.47;;;19.62;54.09
14882;BME280;7533;51.278;12.588;2023-02-13T09:48:54;102356.66;;;19.76;54.73
14882;BME280;7533;51.278;12.588;2023-02-13T09:53:59;102362.19;;;20.01;54.72
14882;BME280;7533;51.278;12.588;2023-02-13T09:59:13;102366.22;;;20.16;54.99
14882;BME280;7533;51.278;12.588;2023-02-13T10:04:28;102364.03;;;20.28;55.47
14882;BME280;7533;51.278;12.588;2023-02-13T10:09:38;102366.25;;;20.42;55.90
14882;BME280;7533;51.278;12.588;2023-02-13T10:14:51;102355.19;;;20.53;56.11
14882;BME280;7533;51.278;12.588;2023-02-13T10:19:59;102349.56;;;20.60;56.30
14882;BME280;7533;51.278;12.588;2023-02-13T10:25:07;102349.44;;;20.65;56.70
14882;BME280;7533;51.278;12.588;2023-02-13T10:30:20;102334.91;;;20.71;56.93
14882;BME280;7533;51.278;12.588;2023-02-13T10:35:26;102338.34;;;20.74;57.04
14882;BME280;7533;51.278;12.588;2023-02-13T10:40:37;102346.31;;;20.77;57.19
14882;BME280;7533;51.278;12.588;2023-02-13T10:45:52;102343.50;;;20.80;57.47
14882;BME280;7533;51.278;12.588;2023-02-13T10:51:04;102328.16;;;20.84;57.56
14882;BME280;7533;51.278;12.588;2023-02-13T10:56:21;102324.44;;;20.88;57.64
14882;BME280;7533;51.278;12.588;2023-02-13T11:01:32;102315.34;;;20.91;57.68
14882;BME280;7533;51.278;12.588;2023-02-13T11:06:40;102309.03;;;20.92;58.11
14882;BME280;7533;51.278;12.588;2023-02-13T11:11:44;102308.88;;;20.96;58.11
14882;BME280;7533;51.278;12.588;2023-02-13T11:16:53;102298.00;;;20.99;58.12
14882;BME280;7533;51.278;12.588;2023-02-13T11:22:01;102297.94;;;21.01;58.22
14882;BME280;7533;51.278;12.588;2023-02-13T11:27:07;102295.13;;;21.04;58.24
14882;BME280;7533;51.278;12.588;2023-02-13T11:32:21;102294.22;;;21.05;58.21
14882;BME280;7533;51.278;12.588;2023-02-13T11:37:27;102292.28;;;21.08;58.23
14882;BME280;7533;51.278;12.588;2023-02-13T11:42:33;102293.13;;;21.10;58.51
14882;BME280;7533;51.278;12.588;2023-02-13T11:47:40;102294.00;;;21.11;58.38
14882;BME280;7533;51.278;12.588;2023-02-13T11:52:54;102284.09;;;21.11;58.12
14882;BME280;7533;51.278;12.588;2023-02-13T11:57:59;102281.44;;;21.10;58.43
14882;BME280;7533;51.278;12.588;2023-02-13T12:03:24;102290.47;;;21.09;58.69
14882;BME280;7533;51.278;12.588;2023-02-13T12:08:28;102300.28;;;21.10;58.81
14882;BME280;7533;51.278;12.588;2023-02-13T12:13:34;102302.09;;;21.09;58.98
14882;BME280;7533;51.278;12.588;2023-02-13T12:18:43;102300.28;;;21.10;59.04
14882;BME280;7533;51.278;12.588;2023-02-13T12:23:54;102285.94;;;21.09;59.14
14882;BME280;7533;51.278;12.588;2023-02-13T12:29:12;102290.53;;;18.37;52.76
14882;BME280;7533;51.278;12.588;2023-02-13T12:40:16;102282.06;;;16.88;55.48
14882;BME280;7533;51.278;12.588;2023-02-13T12:45:32;102263.22;;;18.91;53.42
14882;BME280;7533;51.278;12.588;2023-02-13T12:50:54;102252.47;;;19.54;53.05
14882;BME280;7533;51.278;12.588;2023-02-13T12:56:23;102246.19;;;19.85;53.07
14882;BME280;7533;51.278;12.588;2023-02-13T13:01:46;102251.81;;;20.05;53.25
14882;BME280;7533;51.278;12.588;2023-02-13T13:07:26;102245.97;;;20.21;53.54
14882;BME280;7533;51.278;12.588;2023-02-13T13:12:44;102239.28;;;20.32;53.86
14882;BME280;7533;51.278;12.588;2023-02-13T13:18:00;102237.16;;;20.42;54.19
14882;BME280;7533;51.278;12.588;2023-02-13T13:23:10;102238.78;;;20.48;54.55
14882;BME280;7533;51.278;12.588;2023-02-13T13:28:20;102237.66;;;20.55;54.71
14882;BME280;7533;51.278;12.588;2023-02-13T13:33:25;102234.81;;;20.59;55.06
14882;BME280;7533;51.278;12.588;2023-02-13T13:38:39;102234.75;;;20.61;55.36
14882;BME280;7533;51.278;12.588;2023-02-13T13:43:57;102241.81;;;20.64;56.11
14882;BME280;7533;51.278;12.588;2023-02-13T13:49:13;102240.00;;;20.64;56.96
14882;BME280;7533;51.278;12.588;2023-02-13T13:54:32;102233.72;;;20.65;57.64
14882;BME280;7533;51.278;12.588;2023-02-13T13:59:58;102238.16;;;20.66;58.51
14882;BME280;7533;51.278;12.588;2023-02-13T14:05:08;102239.84;;;20.69;59.11
14882;BME280;7533;51.278;12.588;2023-02-13T14:11:00;102233.38;;;20.74;59.05
14882;BME280;7533;51.278;12.588;2023-02-13T14:16:05;102233.22;;;20.79;59.20
14882;BME280;7533;51.278;12.588;2023-02-13T14:21:10;102234.72;;;20.88;59.52
14882;BME280;7533;51.278;12.588;2023-02-13T14:26:27;102240.91;;;20.90;59.66
14882;BME280;7533;51.278;12.588;2023-02-13T14:31:33;102238.09;;;20.93;59.76
14882;BME280;7533;51.278;12.588;2023-02-13T14:36:42;102234.44;;;20.95;60.02
14882;BME280;7533;51.278;12.588;2023-02-13T14:41:59;102235.25;;;20.97;59.79
14882;BME280;7533;51.278;12.588;2023-02-13T14:47:04;102228.00;;;20.99;59.91
14882;BME280;7533;51.278;12.588;2023-02-13T14:52:17;102228.81;;;21.01;59.82
14882;BME280;7533;51.278;12.588;2023-02-13T14:57:27;102220.69;;;21.03;59.83
14882;BME280;7533;51.278;12.588;2023-02-13T15:02:34;102213.44;;;21.05;59.68
14882;BME280;7533;51.278;12.588;2023-02-13T15:07:44;102217.03;;;21.04;59.71
14882;BME280;7533;51.278;12.588;2023-02-13T15:12:57;102213.31;;;21.08;59.80
14882;BME280;7533;51.278;12.588;2023-02-13T15:18:03;102198.69;;;21.15;59.68
14882;BME280;7533;51.278;12.588;2023-02-13T15:23:21;102190.34;;;21.23;59.48
14882;BME280;7533;51.278;12.588;2023-02-13T15:28:25;102194.47;;;21.33;59.16
14882;BME280;7533;51.278;12.588;2023-02-13T15:33:33;102188.63;;;21.44;58.75
14882;BME280;7533;51.278;12.588;2023-02-13T15:38:40;102183.03;;;21.50;58.35
14882;BME280;7533;51.278;12.588;2023-02-13T15:43:44;102190.81;;;21.57;58.44
14882;BME280;7533;51.278;12.588;2023-02-13T15:48:49;102186.13;;;21.62;58.19
14882;BME280;7533;51.278;12.588;2023-02-13T15:53:55;102175.16;;;21.67;58.14
14882;BME280;7533;51.278;12.588;2023-02-13T15:58:59;102173.88;;;21.76;58.13
14882;BME280;7533;51.278;12.588;2023-02-13T16:04:06;102168.38;;;21.79;58.01
14882;BME280;7533;51.278;12.588;2023-02-13T16:09:24;102166.38;;;21.84;57.98
14882;BME280;7533;51.278;12.588;2023-02-13T16:14:28;102159.84;;;21.89;57.92
14882;BME280;7533;51.278;12.588;2023-02-13T16:19:38;102160.66;;;21.91;57.85
14882;BME280;7533;51.278;12.588;2023-02-13T16:24:48;102165.00;;;21.96;57.76
14882;BME280;7533;51.278;12.588;2023-02-13T16:29:56;102160.28;;;22.01;57.59
14882;BME280;7533;51.278;12.588;2023-02-13T16:35:23;102168.16;;;22.05;57.71
14882;BME280;7533;51.278;12.588;2023-02-13T16:40:40;102170.84;;;22.05;57.62
14882;BME280;7533;51.278;12.588;2023-02-13T16:45:43;102179.34;;;21.96;57.94
14882;BME280;7533;51.278;12.588;2023-02-13T16:50:53;102182.66;;;22.03;57.72
14882;BME280;7533;51.278;12.588;2023-02-13T16:56:00;102184.34;;;22.05;57.96
14882;BME280;7533;51.278;12.588;2023-02-13T17:01:04;102187.28;;;22.23;57.55
14882;BME280;7533;51.278;12.588;2023-02-13T17:06:08;102191.53;;;22.28;57.63
14882;BME280;7533;51.278;12.588;2023-02-13T17:11:17;102182.75;;;22.23;58.04
14882;BME280;7533;51.278;12.588;2023-02-13T17:16:20;102189.38;;;22.36;58.26
14882;BME280;7533;51.278;12.588;2023-02-13T17:21:23;102183.84;;;22.39;57.98
14882;BME280;7533;51.278;12.588;2023-02-13T17:26:27;102197.47;;;22.36;58.70
14882;BME280;7533;51.278;12.588;2023-02-13T17:31:30;102197.94;;;22.46;58.03
14882;BME280;7533;51.278;12.588;2023-02-13T17:36:33;102187.28;;;22.43;57.71
14882;BME280;7533;51.278;12.588;2023-02-13T17:41:38;102174.94;;;22.37;57.62
14882;BME280;7533;51.278;12.588;2023-02-13T17:46:43;102183.78;;;22.41;57.40
14882;BME280;7533;51.278;12.588;2023-02-13T17:51:46;102186.47;;;22.41;57.04
14882;BME280;7533;51.278;12.588;2023-02-13T17:56:50;102181.00;;;22.42;56.65
14882;BME280;7533;51.278;12.588;2023-02-13T18:01:53;102181.00;;;22.42;56.56
14882;BME280;7533;51.278;12.588;2023-02-13T18:06:56;102176.41;;;22.44;56.30
14882;BME280;7533;51.278;12.588;2023-02-13T18:12:02;102178.97;;;22.48;56.10
14882;BME280;7533;51.278;12.588;2023-02-13T18:17:06;102179.75;;;22.51;55.95
14882;BME280;7533;51.278;12.588;2023-02-13T18:22:10;102184.25;;;22.51;55.88
14882;BME280;7533;51.278;12.588;2023-02-13T18:27:15;102160.78;;;22.53;55.51
14882;BME280;7533;51.278;12.588;2023-02-13T18:32:18;102155.66;;;22.47;55.65
14882;BME280;7533;51.278;12.588;2023-02-13T18:37:21;102146.31;;;22.54;55.26
14882;BME280;7533;51.278;12.588;2023-02-13T18:42:25;102153.19;;;22.61;55.30
14882;BME280;7533;51.278;12.588;2023-02-13T18:47:29;102164.22;;;22.56;55.04
14882;BME280;7533;51.278;12.588;2023-02-13T18:52:32;102160.41;;;22.60;54.90
14882;BME280;7533;51.278;12.588;2023-02-13T18:57:37;102157.91;;;22.56;54.77
14882;BME280;7533;51.278;12.588;2023-02-13T19:02:43;102160.69;;;22.54;54.50
14882;BME280;7533;51.278;12.588;2023-02-13T19:07:47;102171.41;;;22.56;54.50
14882;BME280;7533;51.278;12.588;2023-02-13T19:12:51;102166.91;;;22.56;54.48
14882;BME280;7533;51.278;12.588;2023-02-13T19:17:54;102162.13;;;22.63;54.96
14882;BME280;7533;51.278;12.588;2023-02-13T19:22:57;102168.19;;;22.68;54.94
14882;BME280;7533;51.278;12.588;2023-02-13T19:28:02;102169.94;;;22.69;55.11
14882;BME280;7533;51.278;12.588;2023-02-13T19:33:06;102166.28;;;22.70;55.28
14882;BME280;7533;51.278;12.588;2023-02-13T19:38:09;102171.63;;;22.71;55.32
14882;BME280;7533;51.278;12.588;2023-02-13T19:43:13;102160.03;;;22.69;55.58
14882;BME280;7533;51.278;12.588;2023-02-13T19:48:16;102160.09;;;22.68;55.61
14882;BME280;7533;51.278;12.588;2023-02-13T19:53:19;102158.28;;;22.68;55.50
14882;BME280;7533;51.278;12.588;2023-02-13T19:58:23;102145.78;;;22.66;55.63
14882;BME280;7533;51.278;12.588;2023-02-13T20:03:26;102143.50;;;22.57;55.92
14882;BME280;7533;51.278;12.588;2023-02-13T20:08:28;102150.44;;;22.62;55.97
14882;BME280;7533;51.278;12.588;2023-02-13T20:13:33;102151.13;;;22.67;55.93
14882;BME280;7533;51.278;12.588;2023-02-13T20:18:36;102160.03;;;22.69;55.86
14882;BME280;7533;51.278;12.588;2023-02-13T20:23:40;102164.06;;;22.59;56.13
14882;BME280;7533;51.278;12.588;2023-02-13T20:28:45;102156.72;;;22.63;56.10
14882;BME280;7533;51.278;12.588;2023-02-13T20:33:49;102147.41;;;22.70;56.12
14882;BME280;7533;51.278;12.588;2023-02-13T20:38:54;102158.75;;;22.58;56.34
14882;BME280;7533;51.278;12.588;2023-02-13T20:43:59;102159.34;;;22.64;56.26
14882;BME280;7533;51.278;12.588;2023-02-13T20:49:02;102156.06;;;22.58;56.43
14882;BME280;7533;51.278;12.588;2023-02-13T20:54:05;102150.84;;;22.74;56.21
14882;BME280;7533;51.278;12.588;2023-02-13T20:59:10;102152.78;;;22.70;56.20
14882;BME280;7533;51.278;12.588;2023-02-13T21:04:13;102160.78;;;22.73;56.19
14882;BME280;7533;51.278;12.588;2023-02-13T21:09:19;102156.09;;;22.77;56.20
14882;BME280;7533;51.278;12.588;2023-02-13T21:14:23;102173.50;;;22.69;56.54
14882;BME280;7533;51.278;12.588;2023-02-13T21:19:26;102170.63;;;22.74;56.33
14882;BME280;7533;51.278;12.588;2023-02-13T21:24:31;102166.81;;;22.78;56.39
14882;BME280;7533;51.278;12.588;2023-02-13T21:29:36;102171.78;;;22.68;56.62
14882;BME280;7533;51.278;12.588;2023-02-13T21:34:39;102174.28;;;22.73;56.32
14882;BME280;7533;51.278;12.588;2023-02-13T21:39:43;102177.00;;;22.71;56.37
14882;BME280;7533;51.278;12.588;2023-02-13T21:44:48;102178.84;;;22.71;56.54
14882;BME280;7533;51.278;12.588;2023-02-13T21:49:51;102185.28;;;22.68;56.66
14882;BME280;7533;51.278;12.588;2023-02-13T21:54:53;102190.47;;;22.73;56.55
14882;BME280;7533;51.278;12.588;2023-02-13T21:59:57;102187.50;;;22.79;56.59
14882;BME280;7533;51.278;12.588;2023-02-13T22:05:13;102178.72;;;22.74;56.74
14882;BME280;7533;51.278;12.588;2023-02-13T22:10:16;102189.56;;;22.73;56.94
14882;BME280;7533;51.278;12.588;2023-02-13T22:15:20;102194.44;;;22.64;57.07
14882;BME280;7533;51.278;12.588;2023-02-13T22:20:24;102192.75;;;22.62;57.02
14882;BME280;7533;51.278;12.588;2023-02-13T22:25:27;102194.63;;;22.60;57.19
14882;BME280;7533;51.278;12.588;2023-02-13T22:30:31;102198.28;;;22.59;57.34
14882;BME280;7533;51.278;12.588;2023-02-13T22:35:36;102200.97;;;22.59;57.31
14882;BME280;7533;51.278;12.588;2023-02-13T22:40:39;102198.56;;;22.53;57.53
14882;BME280;7533;51.278;12.588;2023-02-13T22:45:43;102204.06;;;22.50;57.58
14882;BME280;7533;51.278;12.588;2023-02-13T22:50:46;102205.84;;;22.51;57.64
14882;BME280;7533;51.278;12.588;2023-02-13T22:55:49;102212.16;;;22.50;57.82
14882;BME280;7533;51.278;12.588;2023-02-13T23:00:53;102210.34;;;22.50;57.85
14882;BME280;7533;51.278;12.588;2023-02-13T23:05:56;102208.59;;;22.49;57.69
14882;BME280;7533;51.278;12.588;2023-02-13T23:11:03;102211.38;;;22.48;57.79
14882;BME280;7533;51.278;12.588;2023-02-13T23:16:26;102200.50;;;22.49;57.88
14882;BME280;7533;51.278;12.588;2023-02-13T23:21:49;102205.22;;;22.44;58.19
14882;BME280;7533;51.278;12.588;2023-02-13T23:26:52;102192.59;;;22.44;58.02
14882;BME280;7533;51.278;12.588;2023-02-13T23:31:56;102204.22;;;22.47;57.81
14882;BME280;7533;51.278;12.588;2023-02-13T23:36:59;102205.16;;;22.46;57.92
14882;BME280;7533;51.278;12.588;2023-02-13T23:42:02;102194.31;;;22.47;57.93
14882;BME280;7533;51.278;12.588;2023-02-13T23:47:07;102204.28;;;22.45;57.99
14882;BME280;7533;51.278;12.588;2023-02-13T23:52:10;102203.63;;;22.40;58.20
14882;BME280;7533;51.278;12.588;2023-02-13T23:57:13;102212.50;;;22.42;58.15
